sensor_id;sensor_type;location;lat;lon;timestamp;pressure;altitude;pressure_sealevel;temperature;humidity
13800;BME280;6971;50.028;9.258;2023-04-01T00:02:34;97772.22;;;8.97;100.00
13800;BME280;6971;50.028;9.258;2023-04-01T00:07:34;97773.03;;;8.98;100.00
13800;BME280;6971;50.028;9.258;2023-04-01T00:12:35;97765.50;;;8.93;100.00
13800;BME280;6971;50.028;9.258;2023-04-01T00:17:36;97769.19;;;8.91;100.00
13800;BME280;6971;50.028;9.258;2023-04-01T00:22:37;97775.56;;;8.99;99.20
13800;BME280;6971;50.028;9.258;2023-04-01T00:27:38;97765.41;;;8.95;98.20
13800;BME280;6971;50.028;9.258;2023-04-01T00:32:38;97769.31;;;8.89;99.09
13800;BME280;6971;50.028;9.258;2023-04-01T00:37:39;97757.56;;;8.82;100.00
13800;BME280;6971;50.028;9.258;2023-04-01T00:42:41;97765.94;;;8.87;99.70
13800;BME280;6971;50.028;9.258;2023-04-01T00:47:42;97760.19;;;8.82;98.70
13800;BME280;6971;50.028;9.258;2023-04-01T00:52:42;97755.22;;;8.90;98.34
13800;BME280;6971;50.028;9.258;2023-04-01T00:57:44;97769.63;;;8.84;97.70
13800;BME280;6971;50.028;9.258;2023-04-01T01:02:46;97769.75;;;8.83;97.07
13800;BME280;6971;50.028;9.258;2023-04-01T01:08:16;97743.25;;;8.86;97.32
13800;BME280;6971;50.028;9.258;2023-04-01T01:19:01;97750.31;;;8.85;98.03
13800;BME280;6971;50.028;9.258;2023-04-01T01:24:27;97746.44;;;8.78;99.79
13800;BME280;6971;50.028;9.258;2023-04-01T01:40:19;97739.44;;;8.54;100.00
13800;BME280;6971;50.028;9.258;2023-04-01T01:45:21;97755.28;;;8.40;100.00
13800;BME280;6971;50.028;9.258;2023-04-01T01:50:25;97744.25;;;8.47;100.00
13800;BME280;6971;50.028;9.258;2023-04-01T01:55:40;97742.16;;;8.40;100.00
13800;BME280;6971;50.028;9.258;2023-04-01T02:00:44;97732.56;;;8.52;100.00
13800;BME280;6971;50.028;9.258;2023-04-01T02:05:48;97746.88;;;8.47;100.00
13800;BME280;6971;50.028;9.258;2023-04-01T02:11:11;97738.59;;;8.54;100.00
13800;BME280;6971;50.028;9.258;2023-04-01T02:16:21;97740.31;;;8.66;99.19
13800;BME280;6971;50.028;9.258;2023-04-01T02:21:24;97738.41;;;8.68;99.43
13800;BME280;6971;50.028;9.258;2023-04-01T02:26:26;97733.63;;;8.62;98.29
13800;BME280;6971;50.028;9.258;2023-04-01T02:31:27;97752.03;;;8.73;97.29
13800;BME280;6971;50.028;9.258;2023-04-01T02:36:28;97745.13;;;8.72;96.55
13800;BME280;6971;50.028;9.258;2023-04-01T02:41:29;97742.88;;;8.79;95.62
13800;BME280;6971;50.028;9.258;2023-04-01T02:46:29;97731.53;;;8.79;96.86
13800;BME280;6971;50.028;9.258;2023-04-01T02:51:30;97739.16;;;8.70;96.86
13800;BME280;6971;50.028;9.258;2023-04-01T02:56:30;97731.03;;;8.73;96.68
13800;BME280;6971;50.028;9.258;2023-04-01T03:01:31;97739.97;;;8.71;96.21
13800;BME280;6971;50.028;9.258;2023-04-01T03:06:31;97743.44;;;8.71;95.65
13800;BME280;6971;50.028;9.258;2023-04-01T03:11:31;97742.47;;;8.72;95.92
13800;BME280;6971;50.028;9.258;2023-04-01T03:16:32;97742.47;;;8.72;96.01
13800;BME280;6971;50.028;9.258;2023-04-01T03:21:33;97745.47;;;8.68;95.20
13800;BME280;6971;50.028;9.258;2023-04-01T03:26:33;97743.72;;;8.80;93.70
13800;BME280;6971;50.028;9.258;2023-04-01T03:31:33;97734.09;;;8.67;96.07
13800;BME280;6971;50.028;9.258;2023-04-01T03:36:34;97735.78;;;8.68;97.50
13800;BME280;6971;50.028;9.258;2023-04-01T03:41:36;97735.00;;;8.55;97.13
13800;BME280;6971;50.028;9.258;2023-04-01T03:46:37;97741.72;;;8.59;96.73
13800;BME280;6971;50.028;9.258;2023-04-01T03:51:39;97724.88;;;8.61;94.64
13800;BME280;6971;50.028;9.258;2023-04-01T03:56:40;97733.16;;;8.68;94.70
13800;BME280;6971;50.028;9.258;2023-04-01T04:01:40;97727.63;;;8.60;96.49
13800;BME280;6971;50.028;9.258;2023-04-01T04:06:41;97727.88;;;8.44;100.00
13800;BME280;6971;50.028;9.258;2023-04-01T04:11:41;97721.44;;;8.23;100.00
13800;BME280;6971;50.028;9.258;2023-04-01T04:16:42;97722.09;;;8.14;100.00
13800;BME280;6971;50.028;9.258;2023-04-01T04:21:42;97719.47;;;8.14;100.00
13800;BME280;6971;50.028;9.258;2023-04-01T04:26:42;97723.84;;;8.27;100.00
13800;BME280;6971;50.028;9.258;2023-04-01T04:31:43;97728.34;;;8.25;100.00
13800;BME280;6971;50.028;9.258;2023-04-01T04:36:43;97722.94;;;8.15;100.00
13800;BME280;6971;50.028;9.258;2023-04-01T04:41:44;97725.69;;;8.13;100.00
13800;BME280;6971;50.028;9.258;2023-04-01T04:46:44;97724.50;;;8.17;100.00
13800;BME280;6971;50.028;9.258;2023-04-01T04:51:44;97719.97;;;8.19;100.00
13800;BME280;6971;50.028;9.258;2023-04-01T04:56:45;97728.50;;;8.10;100.00
13800;BME280;6971;50.028;9.258;2023-04-01T05:01:46;97723.09;;;8.25;100.00
13800;BME280;6971;50.028;9.258;2023-04-01T05:06:46;97720.94;;;8.18;100.00
13800;BME280;6971;50.028;9.258;2023-04-01T05:11:46;97724.41;;;8.19;100.00
13800;BME280;6971;50.028;9.258;2023-04-01T05:16:47;97721.94;;;8.29;100.00
13800;BME280;6971;50.028;9.258;2023-04-01T05:21:47;97717.69;;;8.15;100.00
13800;BME280;6971;50.028;9.258;2023-04-01T05:26:47;97711.03;;;8.22;100.00
13800;BME280;6971;50.028;9.258;2023-04-01T05:31:48;97712.41;;;8.28;100.00
13800;BME280;6971;50.028;9.258;2023-04-01T05:36:48;97706.44;;;8.26;100.00
13800;BME280;6971;50.028;9.258;2023-04-01T05:41:48;97713.34;;;8.27;100.00
13800;BME280;6971;50.028;9.258;2023-04-01T05:46:49;97722.41;;;8.22;100.00
13800;BME280;6971;50.028;9.258;2023-04-01T05:51:49;97712.19;;;8.31;100.00
13800;BME280;6971;50.028;9.258;2023-04-01T05:56:51;97718.16;;;8.33;100.00
13800;BME280;6971;50.028;9.258;2023-04-01T06:01:51;97714.53;;;8.22;100.00
13800;BME280;6971;50.028;9.258;2023-04-01T06:06:52;97727.00;;;7.94;100.00
13800;BME280;6971;50.028;9.258;2023-04-01T06:12:00;97731.50;;;7.92;100.00
13800;BME280;6971;50.028;9.258;2023-04-01T06:33:15;97741.38;;;7.63;100.00
13800;BME280;6971;50.028;9.258;2023-04-01T06:54:17;97738.03;;;7.48;100.00
13800;BME280;6971;50.028;9.258;2023-04-01T06:59:21;97731.53;;;7.53;100.00
13800;BME280;6971;50.028;9.258;2023-04-01T07:09:26;97726.50;;;7.50;100.00
13800;BME280;6971;50.028;9.258;2023-04-01T07:14:36;97720.53;;;7.48;100.00
13800;BME280;6971;50.028;9.258;2023-04-01T07:24:57;97725.34;;;7.54;100.00
13800;BME280;6971;50.028;9.258;2023-04-01T07:30:06;97726.94;;;7.44;100.00
13800;BME280;6971;50.028;9.258;2023-04-01T07:40:32;97735.28;;;7.62;100.00
13800;BME280;6971;50.028;9.258;2023-04-01T07:56:28;97745.38;;;7.55;100.00
13800;BME280;6971;50.028;9.258;2023-04-01T08:01:39;97748.63;;;7.59;100.00
13800;BME280;6971;50.028;9.258;2023-04-01T08:12:04;97743.81;;;7.66;100.00
13800;BME280;6971;50.028;9.258;2023-04-01T08:17:16;97744.88;;;7.63;100.00
13800;BME280;6971;50.028;9.258;2023-04-01T08:22:29;97757.75;;;7.66;100.00
13800;BME280;6971;50.028;9.258;2023-04-01T08:27:41;97752.81;;;7.75;100.00
13800;BME280;6971;50.028;9.258;2023-04-01T08:32:58;97767.09;;;7.57;100.00
13800;BME280;6971;50.028;9.258;2023-04-01T08:38:06;97762.78;;;7.56;100.00
13800;BME280;6971;50.028;9.258;2023-04-01T08:43:21;97761.84;;;7.70;100.00
13800;BME280;6971;50.028;9.258;2023-04-01T08:48:36;97769.38;;;7.88;100.00
13800;BME280;6971;50.028;9.258;2023-04-01T08:59:30;97765.91;;;7.75;100.00
13800;BME280;6971;50.028;9.258;2023-04-01T09:05:11;97772.75;;;7.90;100.00
13800;BME280;6971;50.028;9.258;2023-04-01T09:10:42;97774.63;;;7.88;100.00
13800;BME280;6971;50.028;9.258;2023-04-01T09:15:53;97778.63;;;7.81;100.00
13800;BME280;6971;50.028;9.258;2023-04-01T09:21:43;97772.31;;;7.70;100.00
13800;BME280;6971;50.028;9.258;2023-04-01T09:32:17;97774.63;;;7.88;100.00
13800;BME280;6971;50.028;9.258;2023-04-01T09:37:29;97771.25;;;7.99;100.00
13800;BME280;6971;50.028;9.258;2023-04-01T09:48:05;97788.97;;;8.08;100.00
13800;BME280;6971;50.028;9.258;2023-04-01T09:53:41;97786.03;;;8.13;100.00
13800;BME280;6971;50.028;9.258;2023-04-01T10:51:59;97789.31;;;8.54;100.00
13800;BME280;6971;50.028;9.258;2023-04-01T10:57:54;97792.75;;;8.55;100.00
13800;BME280;6971;50.028;9.258;2023-04-01T11:03:35;97790.22;;;8.66;100.00
13800;BME280;6971;50.028;9.258;2023-04-01T11:35:48;97803.84;;;8.71;100.00
13800;BME280;6971;50.028;9.258;2023-04-01T11:46:19;97821.22;;;8.61;100.00
13800;BME280;6971;50.028;9.258;2023-04-01T12:18:48;97831.41;;;9.14;100.00
13800;BME280;6971;50.028;9.258;2023-04-01T12:24:05;97837.94;;;9.09;100.00
13800;BME280;6971;50.028;9.258;2023-04-01T12:34:38;97841.22;;;9.24;100.00
13800;BME280;6971;50.028;9.258;2023-04-01T12:40:02;97834.91;;;9.26;100.00
13800;BME280;6971;50.028;9.258;2023-04-01T12:45:35;97841.84;;;9.27;100.00
13800;BME280;6971;50.028;9.258;2023-04-01T12:55:59;97841.38;;;9.34;100.00
13800;BME280;6971;50.028;9.258;2023-04-01T13:01:23;97848.31;;;9.35;100.00
13800;BME280;6971;50.028;9.258;2023-04-01T13:06:33;97838.53;;;9.37;100.00
13800;BME280;6971;50.028;9.258;2023-04-01T13:17:17;97850.84;;;9.36;100.00
13800;BME280;6971;50.028;9.258;2023-04-01T13:27:41;97857.97;;;9.23;100.00
13800;BME280;6971;50.028;9.258;2023-04-01T13:32:49;97863.81;;;9.26;100.00
13800;BME280;6971;50.028;9.258;2023-04-01T14:10:28;97880.63;;;9.12;100.00
13800;BME280;6971;50.028;9.258;2023-04-01T14:31:58;97898.06;;;9.38;100.00
13800;BME280;6971;50.028;9.258;2023-04-01T14:42:23;97901.78;;;9.47;100.00
13800;BME280;6971;50.028;9.258;2023-04-01T14:47:56;97901.38;;;9.29;100.00
13800;BME280;6971;50.028;9.258;2023-04-01T14:58:16;97904.41;;;9.22;100.00
13800;BME280;6971;50.028;9.258;2023-04-01T15:08:29;97918.91;;;9.28;100.00
13800;BME280;6971;50.028;9.258;2023-04-01T15:14:06;97922.66;;;9.12;100.00
13800;BME280;6971;50.028;9.258;2023-04-01T15:19:13;97922.56;;;9.14;100.00
13800;BME280;6971;50.028;9.258;2023-04-01T15:24:22;97938.34;;;9.14;100.00
13800;BME280;6971;50.028;9.258;2023-04-01T15:35:03;97944.13;;;9.06;100.00
13800;BME280;6971;50.028;9.258;2023-04-01T15:45:35;97959.47;;;8.99;100.00
13800;BME280;6971;50.028;9.258;2023-04-01T15:55:48;97961.41;;;8.97;100.00
13800;BME280;6971;50.028;9.258;2023-04-01T16:16:55;97972.19;;;9.06;100.00
13800;BME280;6971;50.028;9.258;2023-04-01T16:22:07;97974.09;;;9.04;100.00
13800;BME280;6971;50.028;9.258;2023-04-01T16:27:29;97980.41;;;9.01;100.00
13800;BME280;6971;50.028;9.258;2023-04-01T16:33:14;97985.66;;;9.01;100.00
13800;BME280;6971;50.028;9.258;2023-04-01T16:43:55;97993.56;;;8.88;100.00
13800;BME280;6971;50.028;9.258;2023-04-01T16:54:13;97999.44;;;8.92;100.00
13800;BME280;6971;50.028;9.258;2023-04-01T16:59:21;98010.16;;;8.88;100.00
13800;BME280;6971;50.028;9.258;2023-04-01T17:04:42;98026.78;;;8.76;100.00
13800;BME280;6971;50.028;9.258;2023-04-01T17:09:54;98028.44;;;8.90;100.00
13800;BME280;6971;50.028;9.258;2023-04-01T17:15:04;98030.75;;;8.82;100.00
13800;BME280;6971;50.028;9.258;2023-04-01T17:20:23;98041.78;;;8.87;100.00
13800;BME280;6971;50.028;9.258;2023-04-01T17:25:47;98057.56;;;8.87;100.00
13800;BME280;6971;50.028;9.258;2023-04-01T17:31:57;98063.97;;;8.70;100.00
13800;BME280;6971;50.028;9.258;2023-04-01T17:41:56;98078.06;;;8.69;100.00
13800;BME280;6971;50.028;9.258;2023-04-01T17:53:23;98097.59;;;8.65;100.00
13800;BME280;6971;50.028;9.258;2023-04-01T17:58:26;98111.78;;;8.62;100.00
13800;BME280;6971;50.028;9.258;2023-04-01T18:20:07;98143.53;;;8.44;100.00
13800;BME280;6971;50.028;9.258;2023-04-01T18:25:34;98150.88;;;8.39;100.00
13800;BME280;6971;50.028;9.258;2023-04-01T18:30:39;98156.75;;;8.43;100.00
13800;BME280;6971;50.028;9.258;2023-04-01T18:46:08;98175.22;;;8.41;100.00
13800;BME280;6971;50.028;9.258;2023-04-01T18:51:20;98171.88;;;8.39;100.00
13800;BME280;6971;50.028;9.258;2023-04-01T18:56:36;98190.53;;;8.34;100.00
13800;BME280;6971;50.028;9.258;2023-04-01T19:01:42;98193.41;;;8.44;100.00
13800;BME280;6971;50.028;9.258;2023-04-01T19:06:49;98198.31;;;8.36;100.00
13800;BME280;6971;50.028;9.258;2023-04-01T19:12:06;98200.00;;;8.37;100.00
13800;BME280;6971;50.028;9.258;2023-04-01T19:17:18;98214.06;;;8.36;100.00
13800;BME280;6971;50.028;9.258;2023-04-01T19:22:49;98211.09;;;8.28;100.00
13800;BME280;6971;50.028;9.258;2023-04-01T19:27:59;98217.47;;;8.23;100.00
13800;BME280;6971;50.028;9.258;2023-04-01T19:33:15;98220.88;;;8.26;100.00
13800;BME280;6971;50.028;9.258;2023-04-01T19:38:26;98223.59;;;8.24;100.00
13800;BME280;6971;50.028;9.258;2023-04-01T19:55:06;98245.03;;;8.16;100.00
13800;BME280;6971;50.028;9.258;2023-04-01T20:05:30;98253.63;;;8.05;100.00
13800;BME280;6971;50.028;9.258;2023-04-01T20:10:50;98262.31;;;8.06;100.00
13800;BME280;6971;50.028;9.258;2023-04-01T20:16:02;98271.63;;;7.97;100.00
13800;BME280;6971;50.028;9.258;2023-04-01T20:21:41;98272.66;;;7.94;100.00
13800;BME280;6971;50.028;9.258;2023-04-01T20:26:48;98281.25;;;7.96;100.00
13800;BME280;6971;50.028;9.258;2023-04-01T20:32:03;98285.38;;;8.01;100.00
13800;BME280;6971;50.028;9.258;2023-04-01T20:53:55;98306.53;;;7.97;100.00
13800;BME280;6971;50.028;9.258;2023-04-01T21:14:50;98322.19;;;7.99;100.00
13800;BME280;6971;50.028;9.258;2023-04-01T21:52:29;98379.81;;;7.86;100.00
13800;BME280;6971;50.028;9.258;2023-04-01T22:13:55;98394.34;;;7.92;100.00
13800;BME280;6971;50.028;9.258;2023-04-01T22:19:07;98400.81;;;7.86;100.00
13800;BME280;6971;50.028;9.258;2023-04-01T22:24:22;98406.22;;;7.83;100.00
13800;BME280;6971;50.028;9.258;2023-04-01T22:29:31;98419.47;;;7.96;100.00
13800;BME280;6971;50.028;9.258;2023-04-01T22:50:18;98440.09;;;7.71;100.00
13800;BME280;6971;50.028;9.258;2023-04-01T22:55:25;98437.97;;;7.78;100.00
13800;BME280;6971;50.028;9.258;2023-04-01T23:00:35;98442.84;;;7.70;100.00
13800;BME280;6971;50.028;9.258;2023-04-01T23:05:44;98449.78;;;7.71;100.00
13800;BME280;6971;50.028;9.258;2023-04-01T23:10:53;98457.88;;;7.66;100.00
13800;BME280;6971;50.028;9.258;2023-04-01T23:15:54;98461.81;;;7.59;100.00
13800;BME280;6971;50.028;9.258;2023-04-01T23:21:06;98466.88;;;7.62;100.00
13800;BME280;6971;50.028;9.258;2023-04-01T23:26:43;98477.56;;;7.59;100.00
13800;BME280;6971;50.028;9.258;2023-04-01T23:31:55;98470.88;;;7.84;100.00
13800;BME280;6971;50.028;9.258;2023-04-01T23:37:00;98486.75;;;7.66;100.00
13800;BME280;6971;50.028;9.258;2023-04-01T23:42:11;98494.09;;;7.60;100.00
13800;BME280;6971;50.028;9.258;2023-04-01T23:47:20;98501.31;;;7.56;100.00
13800;BME280;6971;50.028;9.258;2023-04-01T23:57:30;98510.88;;;7.57;100.00
